Latest Weather Observations for Mount Read

IDT60801

Issued at 10:05 am EDT Friday 31 October 2014 (issued every 30 minutes, with the page automatically refreshed every 10 minutes)

About weather observations | Map of weather stations | Latest weather observations for TAS | Other Formats
Station Details ID: 097085 Name: MOUNT READ Lat: -41.84 Lon: 145.54 Height: 1119.5 m
Data from the previous 72 hours. | See also: Recent months at Mount Read
Date/Time
EDT
Temp
°C
App
Temp
°C
Dew
Point
Rel
Hum
%
Delta-T
°C
Wind Press
QNH
hPa
Press
MSL
hPa
Rain
since 9 am
mm
Dir
 
Spd
km/h
Gust
km/h
Spd
kts
Gust
kts
31/10:00am 4.5 -2.4 4.4 99 0.0 N 30 37 16 20 1005.2 1006.0 0.0
31/09:30am 4.3 -2.7 4.2 99 0.0 N 30 37 16 20 1005.3 1006.1 0.0
31/09:00am 4.3 -2.7 4.2 99 0.0 N 30 37 16 20 1005.3 1006.1 23.4
31/08:30am 4.1 -3.5 4.0 99 0.0 N 33 43 18 23 1005.3 1006.1 23.4
31/08:00am 3.9 -3.7 3.8 99 0.0 N 33 43 18 23 1005.5 1006.3 23.4
31/07:30am 3.7 -4.3 3.6 99 0.0 N 35 41 19 22 1005.4 1006.2 23.4
31/07:00am 3.8 -3.3 3.7 99 0.0 N 30 37 16 20 1005.5 1006.3 23.2
31/06:43am 3.7 -3.4 3.6 99 0.0 NNW 30 48 16 26 1006.0 1006.8 23.2
31/06:30am 3.7 -3.8 3.6 99 0.0 NNW 32 46 17 25 1005.9 1006.7 23.2
31/06:00am 3.9 -3.2 3.8 99 0.0 NNW 30 43 16 23 1005.9 1006.7 23.0
31/05:30am 4.0 -3.0 3.9 99 0.0 NNW 30 41 16 22 1005.9 1006.7 22.4
31/05:00am 3.9 -2.0 3.8 99 0.0 NNW 24 33 13 18 1006.0 1006.8 21.8
31/04:30am 4.2 -2.0 4.1 99 0.0 NNW 26 41 14 22 1006.4 1007.2 21.2
31/04:00am 4.3 -0.8 4.2 99 0.0 NNW 20 37 11 20 1006.6 1007.5 20.2
31/03:30am 4.2 -1.7 4.1 99 0.0 NW 24 37 13 20 1007.1 1007.9 19.8
31/03:00am 4.4 -0.7 4.3 99 0.0 NNW 20 32 11 17 1007.3 1008.2 19.4
31/02:30am 4.4 -0.1 4.3 99 0.0 NNW 17 32 9 17 1007.7 1008.6 18.8
31/02:00am 4.4 -1.0 4.3 99 0.0 NNW 22 37 12 20 1008.0 1008.8 18.0
31/01:30am 4.3 -1.9 4.2 99 0.0 NW 26 43 14 23 1008.4 1009.3 17.4
31/01:00am 4.4 -1.0 4.3 99 0.0 NW 22 39 12 21 1009.0 1009.9 17.2
31/12:30am 4.2 -1.7 4.1 99 0.0 NW 24 41 13 22 1009.1 1010.0 16.8
31/12:00am 4.3 -1.9 4.2 99 0.0 WNW 26 41 14 22 1009.2 1010.1 16.6
 
Date/Time
EDT
Temp
°C
App
Temp
°C
Dew
Point
Rel
Hum
%
Delta-T
°C
Wind Press
QNH
hPa
Press
MSL
hPa
Rain
since 9 am
mm
Dir
 
Spd
km/h
Gust
km/h
Spd
kts
Gust
kts
30/11:30pm 4.3 -1.9 4.2 99 0.0 NW 26 43 14 23 1009.4 1010.3 16.4
30/11:00pm 4.3 -2.3 4.2 99 0.0 NW 28 39 15 21 1009.6 1010.6 16.2
30/10:30pm 4.3 -3.1 4.2 99 0.0 WNW 32 43 17 23 1009.8 1010.7 16.2
30/10:00pm 4.4 -0.7 4.3 99 0.0 NW 20 35 11 19 1009.8 1010.7 15.6
30/09:30pm 4.6 -2.7 4.5 99 0.0 WNW 32 46 17 25 1009.6 1010.6 15.4
30/09:26pm 4.6 -1.9 4.5 99 0.0 NW 28 46 15 25 1009.5 1010.4 15.2
30/09:00pm 4.5 -1.3 4.4 99 0.0 WNW 24 39 13 21 1009.5 1010.4 14.2
30/08:30pm 4.5 -2.1 4.4 99 0.0 WNW 28 37 15 20 1009.3 1010.2 14.0
30/08:00pm 4.5 -0.9 4.4 99 0.0 WNW 22 33 12 18 1009.5 1010.4 13.8
30/07:30pm 4.6 -1.9 4.5 99 0.0 WNW 28 35 15 19 1009.2 1010.1 13.0
30/07:00pm 4.9 -1.2 4.8 99 0.0 WNW 26 37 14 20 1009.2 1010.1 13.0
30/06:30pm 5.2 0.9 5.1 99 0.0 WNW 17 28 9 15 1009.1 1010.0 12.6
30/06:00pm 5.3 0.4 5.2 99 0.0 W 20 28 11 15 1009.2 1010.1 12.2
30/05:30pm 5.4 0.5 5.3 99 0.0 W 20 30 11 16 1009.0 1009.9 11.4
30/05:00pm 5.7 0.9 5.6 99 0.0 WNW 20 33 11 18 1009.2 1010.1 11.2
30/04:30pm 5.5 -0.9 5.4 99 0.0 WNW 28 41 15 22 1009.1 1010.0 9.0
30/04:00pm 5.4 -1.9 5.3 99 0.0 W 33 50 18 27 1009.0 1009.9 8.4
30/03:30pm 5.1 -2.1 5.0 99 0.0 W 32 46 17 25 1009.1 1010.0 8.2
30/03:00pm 5.5 -1.8 5.4 99 0.0 W 33 44 18 24 1009.0 1009.9 8.0
30/02:30pm 5.4 -2.3 5.3 99 0.0 W 35 48 19 26 1009.2 1010.1 6.6
30/02:00pm 5.5 -1.6 5.4 99 0.0 WNW 32 41 17 22 1009.0 1009.9 6.2
30/01:30pm 5.6 -1.7 5.5 99 0.0 W 33 44 18 24 1009.1 1010.0 4.8
30/01:00pm 5.7 -1.0 5.6 99 0.0 W 30 46 16 25 1009.0 1009.9 4.6
30/12:30pm 5.0 -2.8 4.9 99 0.0 W 35 48 19 26 1009.1 1010.0 4.2
30/12:00pm 5.3 -0.7 5.2 99 0.0 WNW 26 39 14 21 1009.1 1010.0 3.4
30/11:30am 5.0 -2.2 4.9 99 0.0 WNW 32 44 17 24 1009.2 1010.1 2.6
30/11:00am 5.2 -0.5 5.1 99 0.0 W 24 39 13 21 1009.4 1010.3 1.8
30/10:30am 4.9 -2.0 4.8 99 0.0 W 30 41 16 22 1009.3 1010.2 1.2
30/10:00am 4.7 -1.8 4.6 99 0.0 W 28 39 15 21 1009.2 1010.1 0.6
30/09:30am 4.5 -1.3 4.4 99 0.0 W 24 33 13 18 1009.4 1010.3 0.6
30/09:00am 4.7 -1.1 4.6 99 0.0 W 24 33 13 18 1009.3 1010.2 39.8
30/08:30am 4.5 -2.1 4.4 99 0.0 W 28 35 15 19 1009.1 1010.0 39.0
30/08:00am 4.4 -2.6 4.3 99 0.0 W 30 39 16 21 1008.9 1009.8 38.8
30/07:30am 4.3 -2.3 4.2 99 0.0 W 28 41 15 22 1008.8 1009.6 37.8
30/07:00am 4.4 -0.5 4.3 99 0.0 WNW 19 26 10 14 1008.8 1009.6 36.8
30/06:30am 4.2 -2.8 4.1 99 0.0 W 30 41 16 22 1008.2 1009.1 35.8
30/06:00am 4.2 -1.3 4.1 99 0.0 WNW 22 35 12 19 1008.2 1009.1 35.2
30/05:30am 4.1 -2.9 4.0 99 0.0 W 30 39 16 21 1007.9 1008.7 34.4
30/05:18am 4.1 -2.5 4.0 99 0.0 W 28 50 15 27 1007.9 1008.7 34.4
30/05:00am 4.1 -2.2 4.0 99 0.0 W 26 32 14 17 1008.0 1008.8 33.8
30/04:30am 4.1 -1.0 4.0 99 0.0 W 20 28 11 15 1008.1 1009.0 32.8
30/04:00am 4.0 -3.0 3.9 99 0.0 WNW 30 43 16 23 1008.1 1009.0 31.2
30/03:30am 3.8 -3.8 3.7 99 0.0 WNW 33 52 18 28 1008.3 1009.2 29.6
30/03:17am 3.8 -2.9 3.7 99 0.0 WNW 28 50 15 27 1008.3 1009.2 29.4
30/03:00am 3.9 -3.5 3.8 99 0.0 WNW 32 39 17 21 1008.3 1009.2 28.8
30/02:30am 3.8 -2.5 3.7 99 0.0 WNW 26 43 14 23 1008.3 1009.2 28.2
30/02:00am 3.6 -3.9 3.5 99 0.0 W 32 46 17 25 1008.6 1009.5 28.2
30/01:30am 3.8 -4.2 3.7 99 0.0 WNW 35 50 19 27 1008.5 1009.4 27.8
30/01:00am 3.5 -5.0 3.4 99 0.0 WNW 37 57 20 31 1008.9 1009.8 27.4
30/12:32am 3.7 -4.0 3.6 99 0.0 WNW 33 54 18 29 1009.1 1010.0 26.4
30/12:30am 3.7 -4.0 3.6 99 0.0 WNW 33 43 18 23 1009.1 1010.0 26.4
30/12:09am 3.8 -3.3 3.7 99 0.0 WNW 30 48 16 26 1009.5 1010.4 25.8
30/12:00am 3.6 -4.8 3.5 99 0.0 W 37 50 20 27 1009.3 1010.2 25.4
 
Date/Time
EDT
Temp
°C
App
Temp
°C
Dew
Point
Rel
Hum
%
Delta-T
°C
Wind Press
QNH
hPa
Press
MSL
hPa
Rain
since 9 am
mm
Dir
 
Spd
km/h
Gust
km/h
Spd
kts
Gust
kts
29/11:30pm 4.0 -2.7 3.9 99 0.0 W 28 43 15 23 1009.5 1010.4 24.4
29/11:00pm 4.0 -3.4 3.9 99 0.0 WNW 32 50 17 27 1009.5 1010.4 23.4
29/10:42pm 4.0 -4.4 3.9 99 0.0 WNW 37 57 20 31 1009.5 1010.4 23.0
29/10:30pm 4.0 -5.1 3.9 99 0.0 WNW 41 54 22 29 1009.5 1010.4 22.6
29/10:08pm 4.0 -5.5 3.9 99 0.0 W 43 63 23 34 1009.8 1010.7 22.2
29/10:00pm 4.4 -5.6 4.3 99 0.0 WNW 46 63 25 34 1009.5 1010.4 21.8
29/09:41pm 4.3 -6.1 4.2 99 0.0 WNW 48 67 26 36 1009.5 1010.4 21.2
29/09:30pm 4.3 -5.7 4.2 99 0.0 WNW 46 59 25 32 1009.6 1010.6 21.2
29/09:00pm 4.1 -5.4 4.0 99 0.0 WNW 43 63 23 34 1009.5 1010.4 20.4
29/08:37pm 4.7 -5.2 4.6 99 0.0 WNW 46 67 25 36 1009.4 1010.3 19.6
29/08:30pm 4.6 -5.7 4.5 99 0.0 WNW 48 65 26 35 1009.3 1010.2 19.6
29/08:05pm 4.8 -4.2 4.7 99 0.0 WNW 41 61 22 33 1009.8 1010.7 19.6
29/08:00pm 4.8 -4.6 4.7 99 0.0 WNW 43 61 23 33 1009.6 1010.6 19.2
29/07:30pm 4.9 -5.4 4.8 99 0.0 WNW 48 72 26 39 1009.5 1010.4 18.6
29/07:03pm 5.2 -4.1 5.1 99 0.0 WNW 43 61 23 33 1009.4 1010.3 17.6
29/07:00pm 5.1 -3.8 5.0 99 0.0 WNW 41 57 22 31 1009.4 1010.3 17.6
29/06:30pm 4.7 -4.9 4.6 99 0.0 WNW 44 63 24 34 1009.6 1010.6 16.4
29/06:00pm 5.2 -3.7 5.1 99 0.0 WNW 41 59 22 32 1010.0 1010.9 15.6
29/05:30pm 4.9 -4.1 4.8 99 0.0 WNW 41 67 22 36 1009.9 1010.8 14.2
29/05:00pm 5.0 -5.3 4.9 99 0.0 WNW 48 69 26 37 1009.9 1010.8 13.0
29/04:34pm 4.7 -3.5 4.6 99 0.0 WNW 37 56 20 30 1010.1 1011.0 12.0
29/04:30pm 4.7 -3.2 4.6 99 0.0 WNW 35 54 19 29 1010.2 1011.1 12.0
29/04:00pm 5.0 -3.9 4.9 99 0.0 WNW 41 61 22 33 1010.1 1011.0 10.4
29/03:31pm 5.0 -2.4 4.9 99 0.0 NW 33 56 18 30 1010.3 1011.2 9.6
29/03:30pm 5.0 -1.8 4.9 99 0.0 NW 30 44 16 24 1010.4 1011.4 9.6
29/03:22pm 4.8 -5.9 4.7 99 0.0 WNW 50 70 27 38 1010.2 1011.1 9.4
29/03:21pm 4.9 -6.9 4.8 99 0.0 NW 56 70 30 38 1010.1 1011.0 9.4
29/03:00pm 4.8 -2.7 4.7 99 0.0 WNW 33 59 18 32 1010.4 1011.4 9.2
29/02:30pm 4.6 -2.9 4.5 99 0.0 NW 33 74 18 40 1010.8 1011.7 9.2
29/02:29pm 4.5 -3.4 4.4 99 0.0 NW 35 74 19 40 1010.6 1011.6 9.2
29/02:00pm 4.5 -2.4 4.4 99 0.0 WNW 30 50 16 27 1010.9 1011.8 7.8
29/01:52pm 4.5 -2.8 4.4 99 0.0 WNW 32 50 17 27 1011.0 1011.9 7.6
29/01:30pm 4.5 0.8 4.4 99 0.0 NW 13 33 7 18 1011.2 1012.2 7.2
29/01:27pm 4.6 1.7 4.5 99 0.0 NNW 9 13 5 7 1011.2 1012.2 6.8
29/01:00pm 4.0 -4.7 3.9 99 0.0 WNW 39 61 21 33 1011.1 1012.0 6.4
29/12:30pm 4.1 -3.3 4.0 99 0.0 WNW 32 52 17 28 1011.0 1011.9 6.0
29/12:00pm 3.5 -4.0 3.4 99 0.0 NW 32 57 17 31 1011.1 1012.0 5.6
29/11:30am 3.6 -3.1 3.5 99 0.0 NW 28 61 15 33 1011.0 1011.9 4.4
29/11:07am 3.3 -3.5 3.2 99 0.0 NW 28 52 15 28 1011.0 1011.9 3.8
29/11:00am 3.3 -2.0 3.2 99 0.0 NW 20 26 11 14 1011.1 1012.0 3.2
29/10:32am 3.0 -4.6 2.9 99 0.0 WNW 32 52 17 28 1010.9 1011.8 3.0
29/10:30am 2.9 -4.9 2.8 99 0.0 WNW 33 48 18 26 1010.9 1011.8 3.0
29/10:00am 2.6 -5.6 2.5 99 0.0 WNW 35 57 19 31 1010.9 1011.8 2.4
29/09:36am 2.5 -4.8 2.4 99 0.0 WNW 30 54 16 29 1010.9 1011.8 1.8
29/09:30am 2.5 -4.8 2.4 99 0.0 WNW 30 44 16 24 1011.0 1011.9 1.4
29/09:00am 2.2 -6.1 2.1 99 0.0 WNW 35 56 19 30 1010.6 1011.6 12.4
29/08:56am 2.1 -6.2 2.0 99 0.0 WNW 35 56 19 30 1010.6 1011.6 12.2
29/08:30am 1.8 -6.2 1.7 99 0.0 WNW 33 46 18 25 1010.4 1011.4 12.0
29/08:00am 1.4 -6.1 1.3 99 0.0 WNW 30 41 16 22 1010.5 1011.5 11.4
29/07:30am 1.1 -4.9 1.0 99 0.0 WNW 22 32 12 17 1010.5 1011.5 10.8
29/07:00am 0.6 -6.2 0.5 99 0.0 W 26 39 14 21 1010.4 1011.4 10.4
29/06:30am 0.6 -6.2 0.5 99 0.0 W 26 35 14 19 1010.2 1011.1 10.0
29/06:00am 0.6 -6.2 0.5 99 0.0 W 26 37 14 20 1009.9 1010.8 9.2
29/05:50am 0.6 -6.6 0.5 99 0.0 W 28 46 15 25 1009.9 1010.8 9.0
29/05:30am 0.5 -7.7 0.4 99 0.0 WSW 33 43 18 23 1009.6 1010.6 8.4
29/05:00am 0.3 -7.7 0.2 99 0.0 WSW 32 43 17 23 1009.4 1010.3 7.8
29/04:30am 0.3 -8.7 0.2 99 0.0 WSW 37 50 20 27 1009.1 1010.0 7.8
29/04:25am 0.3 -7.7 0.2 99 0.0 WSW 32 50 17 27 1009.0 1009.9 7.8
29/04:00am 0.2 -7.8 0.1 99 0.0 WSW 32 46 17 25 1008.6 1009.5 7.8
29/03:30am 0.0 -7.3 -0.1 99 0.0 SW 28 39 15 21 1008.4 1009.3 7.8
29/03:00am 0.0 -7.7 -0.1 99 0.0 WSW 30 39 16 21 1008.5 1009.4 7.8
29/02:30am -0.1 -8.4 -0.2 99 0.0 SW 33 44 18 24 1008.5 1009.4 7.8
29/02:00am -0.2 -8.5 -0.3 99 0.0 SW 33 48 18 26 1008.3 1009.2 7.8
29/01:30am -0.3 -9.4 -0.4 99 0.0 SW 37 50 20 27 1008.4 1009.3 7.8
29/01:00am -0.2 -9.6 -0.3 99 0.0 SW 39 48 21 26 1008.4 1009.3 7.8
29/12:30am -0.3 -10.1 -0.4 99 0.0 SW 41 52 22 28 1008.3 1009.2 7.8
29/12:00am -0.6 -11.0 -0.7 99 0.0 WSW 44 56 24 30 1008.0 1008.8 7.8
 
Date/Time
EDT
Temp
°C
App
Temp
°C
Dew
Point
Rel
Hum
%
Delta-T
°C
Wind Press
QNH
hPa
Press
MSL
hPa
Rain
since 9 am
mm
Dir
 
Spd
km/h
Gust
km/h
Spd
kts
Gust
kts
28/11:30pm -0.6 -11.0 -0.7 99 0.0 WSW 44 61 24 33 1007.9 1008.7 7.8
28/11:00pm -0.5 -11.7 -0.6 99 0.0 SW 48 63 26 34 1007.7 1008.6 7.8
28/10:56pm -0.6 -12.2 -0.7 99 0.0 SW 50 69 27 37 1007.7 1008.6 7.8
28/10:30pm -0.3 -11.5 -0.4 99 0.0 SW 48 65 26 35 1007.6 1008.5 7.8
28/10:02pm -0.7 -10.6 -0.8 99 0.0 SW 41 61 22 33 1007.9 1008.7 7.8
28/10:00pm -0.6 -9.7 -0.7 99 0.0 SW 37 54 20 29 1008.1 1009.0 7.8
28/09:44pm -0.4 -10.2 -0.5 99 0.0 WSW 41 59 22 32 1007.7 1008.6 7.8
28/09:30pm -0.4 -12.0 -0.5 99 0.0 SW 50 59 27 32 1007.1 1007.9 7.8
28/09:00pm -0.5 -12.4 -0.6 99 0.0 WSW 52 76 28 41 1006.7 1007.6 7.8
28/08:36pm -0.7 -13.1 -0.8 99 0.0 WSW 54 76 29 41 1006.3 1007.1 7.8
28/08:30pm -0.8 -13.6 -0.9 99 0.0 WSW 56 72 30 39 1006.2 1007.0 7.8
28/08:11pm -0.4 -11.6 -0.5 99 0.0 WSW 48 69 26 37 1006.0 1006.8 7.8
28/08:00pm -0.4 -12.3 -0.5 99 0.0 WSW 52 65 28 35 1005.5 1006.3 7.8
28/07:30pm -0.5 -14.2 -0.6 99 0.0 WSW 61 80 33 43 1005.2 1006.0 7.8
28/07:21pm -0.4 -12.3 -0.5 99 0.0 SW 52 70 28 38 1004.7 1005.5 7.8
28/07:00pm -0.1 -9.9 -0.2 99 0.0 WSW 41 59 22 32 1004.8 1005.6 7.8
28/06:51pm -0.2 -9.6 -0.3 99 0.0 WSW 39 57 21 31 1004.8 1005.6 7.8
28/06:49pm -0.3 -10.1 -0.4 99 0.0 WSW 41 57 22 31 1004.7 1005.5 7.8
28/06:30pm -0.6 -15.0 -0.7 99 0.0 WSW 65 85 35 46 1004.0 1004.7 7.8
28/06:00pm -0.3 -14.3 -0.4 99 0.0 WSW 63 93 34 50 1003.3 1004.0 7.8
28/05:30pm -0.1 -13.3 -0.2 99 0.0 WSW 59 83 32 45 1002.5 1003.2 7.8
28/05:00pm -0.2 -12.9 -0.3 99 0.0 WSW 56 74 30 40 1002.2 1002.9 7.8
28/04:30pm -0.1 -14.1 -0.2 99 0.0 WSW 63 87 34 47 1001.2 1001.9 7.8
28/04:00pm -0.2 -13.8 -0.3 99 0.0 WSW 61 85 33 46 1000.9 1001.6 7.6
28/03:30pm -0.4 -14.0 -0.5 99 0.0 WSW 61 83 33 45 999.9 1000.6 7.2
28/03:23pm -0.7 -13.6 -0.8 99 0.0 WSW 57 76 31 41 1000.2 1000.8 7.2
28/03:22pm -0.7 -14.0 -0.8 99 0.0 WSW 59 76 32 41 1000.5 1001.2 7.2
28/03:13pm -0.4 -18.0 -0.5 99 0.0 WSW 82 117 44 63 999.0 999.7 7.2
28/03:12pm -0.4 -13.7 -0.5 99 0.0 WSW 59 115 32 62 999.3 999.9 7.2
28/03:07pm -0.2 -12.5 -0.3 99 0.0 W 54 89 29 48 999.6 1000.2 7.2
28/03:06pm -0.2 -11.0 -0.3 99 0.0 W 46 57 25 31 999.9 1000.6 7.2
28/03:00pm -0.3 -16.4 -0.4 99 0.0 W 74 100 40 54 999.3 999.9 7.2
28/02:53pm -0.2 -17.4 -0.3 99 0.0 W 80 100 43 54 998.7 999.3 7.0
28/02:30pm -0.5 -13.8 -0.6 99 0.0 WSW 59 100 32 54 999.6 1000.2 6.6
28/02:22pm -0.5 -13.2 -0.6 99 0.0 WSW 56 87 30 47 998.7 999.3 6.6
28/02:12pm 0.0 -10.4 -0.1 99 0.0 W 44 67 24 36 998.9 999.6 6.4
28/02:10pm 0.0 -9.0 -0.1 99 0.0 WSW 37 48 20 26 999.2 999.8 6.4
28/02:00pm 0.0 -13.6 -0.1 99 0.0 W 61 85 33 46 999.0 999.7 6.4
28/01:56pm 0.0 -13.6 -0.1 99 0.0 W 61 85 33 46 998.7 999.3 6.4
28/01:38pm -0.2 -18.4 -0.3 99 0.0 W 85 104 46 56 997.5 998.1 6.0
28/01:30pm -0.3 -13.6 -0.4 99 0.0 W 59 98 32 53 997.8 998.4 6.0
28/01:00pm -0.1 -14.5 -0.2 99 0.0 W 65 100 35 54 997.8 998.4 5.0
28/12:51pm -0.2 -17.4 -0.3 99 0.0 W 80 100 43 54 997.4 998.0 4.8
28/12:50pm -0.2 -17.4 -0.3 99 0.0 W 80 95 43 51 997.4 998.0 4.8
28/12:45pm -0.2 -12.5 -0.3 99 0.0 W 54 80 29 43 998.2 998.8 4.6
28/12:44pm -0.2 -12.5 -0.3 99 0.0 W 54 70 29 38 998.3 998.9 4.6
28/12:30pm -0.4 -16.5 -0.5 99 0.0 W 74 98 40 53 996.9 997.5 4.2
28/12:26pm -0.3 -16.0 -0.4 99 0.0 W 72 91 39 49 997.4 998.0 4.2
28/12:25pm -0.3 -16.8 -0.4 99 0.0 W 76 91 41 49 997.3 997.8 4.2
28/12:00pm -0.5 -12.8 -0.6 99 0.0 WSW 54 85 29 46 996.8 997.4 3.6
28/11:30am -1.0 -15.5 -1.1 99 0.0 W 65 107 35 58 995.9 996.5 3.0
28/11:00am -0.6 -15.4 -0.7 99 0.0 W 67 89 36 48 996.7 997.3 2.2
28/10:30am -0.7 -14.8 -0.8 99 0.0 W 63 104 34 56 995.8 996.4 1.4
28/10:28am -0.7 -13.6 -0.8 99 0.0 W 57 104 31 56 995.7 996.2 1.4

Other Formats:

Comma delimited format used in spreadsheet applications
http://www.bom.gov.au/fwo/IDT60801/IDT60801.95952.axf

JavaScript Object Notation format (JSON) in row-major order
http://www.bom.gov.au/fwo/IDT60801/IDT60801.95952.json